Track серженко михаил

Time Latitude Longitude Accuracy (66% radius in meters) Altitude (meters) Speed (km/hour) Bearing (degrees) Battery (%) GPS flag
10:23:55 44.638065 39.185134 4 98 1.5811388492584 304 69 1 delete
10:23:47 44.637983 39.185204 4 96 1.8027756214142 276.79998779297 69 1 delete
10:23:40 44.637936 39.185324 4 96 1.9525624513626 314.70001220703 69 1 delete
10:23:34 44.637867 39.185418 5 90 1.8027756214142 250.10000610352 69 1 delete
10:23:25 44.637860 39.185556 5 94 1.5811388492584 354.89999389648 69 1 delete
10:23:13 44.637820 39.185683 5 101 1.5811388492584 354.89999389648 69 1 delete
10:22:57 44.637735 39.185738 4 110 1.677050948143 354.89999389648 69 1 delete
10:22:51 44.637645 39.185729 5 114 1.677050948143 339 69 1 delete
10:22:42 44.637546 39.185717 6 116 1.5 0 69 1 delete
10:22:36 44.637451 39.185730 7 118 2.3048861026764 331.39999389648 69 1 delete
10:22:31 44.637344 39.185783 5 120 2.9154758453369 322.79998779297 69 1 delete
10:22:26 44.637232 39.185833 4 128 1.9525624513626 12.800000190735 69 1 delete
10:22:22 44.637158 39.185746 6 131 2.3048861026764 12.39999961853 69 1 delete
10:22:17 44.637048 39.185701 5 135 2.5 11.39999961853 69 1 delete
10:22:13 44.636941 39.185649 5 133 2.5 15.10000038147 69 1 delete
10:22:09 44.636858 39.185595 5 135 2.1213202476501 2.7000000476837 69 1 delete
10:22:04 44.636759 39.185542 5 134 2.7041635513306 31.39999961853 69 1 delete
10:22:00 44.636676 39.185446 6 135 2.9154758453369 13.39999961853 69 1 delete
10:21:57 44.636574 39.185374 9 132 2.9154758453369 38.099998474121 69 1 delete
10:21:54 44.636513 39.185267 7 131 2.7041635513306 38.400001525879 69 1 delete
10:21:50 44.636438 39.185150 6 126 1.9525624513626 25.10000038147 69 1 delete
10:21:44 44.636378 39.185047 5 126 1.9525624513626 47.099998474121 69 1 delete
10:21:39 44.636298 39.184947 6 122 2.7041635513306 359.5 69 1 delete
10:21:35 44.636188 39.184914 6 125 2.5 350.70001220703 69 1 delete
10:21:31 44.636090 39.184892 6 127 2.5 32.299999237061 69 1 delete
10:21:27 44.635997 39.184806 7 124 2.5 27.60000038147 69 1 delete
10:21:22 44.635885 39.184760 6 124 1.8027756214142 19.10000038147 69 1 delete
10:21:15 44.635793 39.184775 8 125 1.9525624513626 254.39999389648 69 1 delete
10:21:10 44.635727 39.184900 10 130 1.9525624513626 299 69 1 delete
10:21:05 44.635668 39.185008 6 127 1.8027756214142 295.79998779297 69 1 delete
10:20:58 44.635593 39.185121 7 128 1.5 0 69 1 delete
10:20:55 44.635488 39.185197 9 127 2.5 323.79998779297 69 1 delete
10:20:52 44.635396 39.185267 10 126 2.5 323.10000610352 69 1 delete
10:20:48 44.635304 39.185337 7 127 2.1213202476501 319.29998779297 69 1 delete
10:20:42 44.635260 39.185459 5 129 1.677050948143 311.5 69 1 delete
10:20:35 44.635169 39.185499 4 132 1.677050948143 311.5 69 1 delete
10:20:29 44.635093 39.185570 5 136 1.677050948143 290.39999389648 69 1 delete
10:20:21 44.635008 39.185642 5 132 1.677050948143 290.39999389648 69 1 delete
10:20:15 44.634932 39.185715 7 131 1.677050948143 290.39999389648 69 1 delete
10:20:08 44.634852 39.185793 9 128 1.5811388492584 290.39999389648 69 1 delete
10:20:00 44.634774 39.185868 8 126 1.8027756214142 290.39999389648 69 1 delete
10:19:55 44.634681 39.185939 7 126 1.9525624513626 313.70001220703 69 1 delete
10:19:48 44.634637 39.186068 6 129 1.9525624513626 296.5 69 1 delete
10:19:37 44.634568 39.186158 5 127 1.5811388492584 262.29998779297 69 1 delete
10:19:25 44.634507 39.186261 5 127 1.677050948143 262.29998779297 69 1 delete
10:19:17 44.634467 39.186381 5 130 1.5811388492584 262.29998779297 69 1 delete
10:19:07 44.634475 39.186513 4 130 1.8027756214142 240.19999694824 69 1 delete
10:18:55 44.634443 39.186635 3 133 1.9525624513626 316.89999389648 69 1 delete
10:18:47 44.634364 39.186705 3 134 1.9525624513626 340.60000610352 69 1 delete
10:18:42 44.634272 39.186753 7 132 2.1213202476501 314.29998779297 69 1 delete